createdAt,value
2023-02-24T00:00:21.121Z,37
2023-02-24T00:02:49.509Z,37
2023-02-24T00:04:03.550Z,37
2023-02-24T00:05:17.734Z,37
2023-02-24T00:07:45.990Z,37
2023-02-24T00:09:00.098Z,35
2023-02-24T00:10:14.264Z,36
2023-02-24T00:12:42.487Z,35
2023-02-24T00:13:56.602Z,36
2023-02-24T00:15:10.720Z,35
2023-02-24T00:16:25.053Z,34
2023-02-24T00:18:53.166Z,34
2023-02-24T00:20:07.359Z,36
2023-02-24T00:21:21.681Z,35
2023-02-24T00:23:49.683Z,35
2023-02-24T00:25:03.794Z,34
2023-02-24T00:26:18.028Z,34
2023-02-24T00:28:46.221Z,35
2023-02-24T00:30:00.325Z,34
2023-02-24T00:31:14.669Z,34
2023-02-24T00:32:28.896Z,33
2023-02-24T00:33:42.751Z,35
2023-02-24T00:34:56.875Z,35
2023-02-24T00:36:10.970Z,35
2023-02-24T00:37:25.170Z,34
2023-02-24T00:39:53.468Z,34
2023-02-24T00:41:07.608Z,35
2023-02-24T00:42:21.728Z,35
2023-02-24T00:44:49.950Z,33
2023-02-24T00:46:04.211Z,33
2023-02-24T00:47:18.277Z,33
2023-02-24T00:49:46.495Z,33
2023-02-24T00:51:00.572Z,32
2023-02-24T00:52:14.907Z,33
2023-02-24T00:54:43.023Z,32
2023-02-24T00:55:57.159Z,34
2023-02-24T00:57:11.625Z,33
2023-02-24T00:58:25.421Z,33
2023-02-24T01:00:53.700Z,33
2023-02-24T01:02:07.949Z,34
2023-02-24T01:03:21.911Z,31
2023-02-24T01:05:50.177Z,33
2023-02-24T01:07:04.383Z,34
2023-02-24T01:08:18.453Z,35
2023-02-24T01:10:46.713Z,33
2023-02-24T01:12:00.991Z,33
2023-02-24T01:13:15.100Z,31
2023-02-24T01:15:43.386Z,33
2023-02-24T01:16:57.416Z,32
2023-02-24T01:18:11.538Z,33
2023-02-24T01:19:25.756Z,33
2023-02-24T01:21:54.032Z,33
2023-02-24T01:23:08.031Z,33
2023-02-24T01:24:22.191Z,34
2023-02-24T01:26:50.436Z,33
2023-02-24T01:28:04.666Z,34
2023-02-24T01:29:18.739Z,34
2023-02-24T01:31:49.543Z,36
2023-02-24T01:33:01.282Z,38
2023-02-24T01:34:15.327Z,36
2023-02-24T01:36:43.583Z,39
2023-02-24T01:37:57.703Z,39
2023-02-24T01:39:11.821Z,40
2023-02-24T01:40:25.982Z,43
2023-02-24T01:42:54.261Z,44
2023-02-24T01:44:08.352Z,45
2023-02-24T01:45:22.454Z,44
2023-02-24T01:47:50.732Z,45
2023-02-24T01:49:04.867Z,44
2023-02-24T01:50:18.987Z,48
2023-02-24T01:52:47.280Z,48
2023-02-24T01:54:01.382Z,45
2023-02-24T01:55:15.469Z,46
2023-02-24T01:57:43.799Z,46
2023-02-24T01:58:57.993Z,45
2023-02-24T02:00:12.084Z,44
2023-02-24T02:01:26.272Z,46
2023-02-24T02:03:54.455Z,46
2023-02-24T02:05:08.580Z,49
2023-02-24T02:06:22.717Z,47
2023-02-24T02:08:50.975Z,47
2023-02-24T02:10:05.107Z,47
2023-02-24T02:11:19.494Z,48
2023-02-24T02:13:47.582Z,49
2023-02-24T02:15:01.625Z,48
2023-02-24T02:16:15.796Z,49
2023-02-24T02:18:44.095Z,48
2023-02-24T02:19:58.154Z,48
2023-02-24T02:21:12.308Z,49
2023-02-24T02:22:26.469Z,47
2023-02-24T02:24:54.777Z,47
2023-02-24T02:26:08.829Z,46
2023-02-24T02:27:22.965Z,46
2023-02-24T02:29:51.255Z,45
2023-02-24T02:31:05.620Z,44
2023-02-24T02:32:19.618Z,43
2023-02-24T02:34:47.855Z,45
2023-02-24T02:36:01.893Z,46
2023-02-24T02:37:16.012Z,46
2023-02-24T02:39:44.413Z,46
2023-02-24T02:40:58.435Z,47
2023-02-24T02:42:12.581Z,48
2023-02-24T02:43:26.732Z,49
2023-02-24T02:45:55.091Z,48
2023-02-24T02:47:09.090Z,51
2023-02-24T02:48:23.245Z,46
2023-02-24T02:50:51.481Z,51
2023-02-24T02:52:05.628Z,47
2023-02-24T02:53:19.787Z,51
2023-02-24T02:57:02.139Z,52
2023-02-24T02:58:16.294Z,49
2023-02-24T03:00:44.669Z,51
2023-02-24T03:01:58.688Z,51
2023-02-24T03:03:12.920Z,51
2023-02-24T03:05:41.066Z,50
2023-02-24T03:06:55.205Z,51
2023-02-24T03:08:09.346Z,51
2023-02-24T03:09:23.591Z,52
2023-02-24T03:11:51.754Z,49
2023-02-24T03:13:05.888Z,49
2023-02-24T03:14:20.051Z,47
2023-02-24T03:16:48.381Z,51
2023-02-24T03:18:02.427Z,51
2023-02-24T03:19:16.547Z,50
2023-02-24T03:21:44.868Z,49
2023-02-24T03:22:58.984Z,49
2023-02-24T03:24:13.085Z,49
2023-02-24T03:26:41.323Z,48
2023-02-24T03:27:55.558Z,48
2023-02-24T03:29:09.653Z,50
2023-02-24T03:30:23.827Z,52
2023-02-24T03:32:52.188Z,50
2023-02-24T03:34:06.263Z,49
2023-02-24T03:35:20.250Z,48
2023-02-24T03:37:48.534Z,47
2023-02-24T03:39:02.691Z,46
2023-02-24T03:40:16.825Z,47
2023-02-24T03:42:45.067Z,46
2023-02-24T03:43:59.233Z,45
2023-02-24T03:45:13.372Z,43
2023-02-24T03:47:41.587Z,45
2023-02-24T03:48:55.780Z,42
2023-02-24T03:50:09.872Z,46
2023-02-24T03:51:24.012Z,43
2023-02-24T03:53:52.282Z,42
2023-02-24T03:55:06.503Z,43
2023-02-24T03:56:20.514Z,42
2023-02-24T03:58:48.796Z,41
2023-02-24T04:00:03.042Z,41
2023-02-24T04:01:17.076Z,41
2023-02-24T04:03:45.342Z,40
2023-02-24T04:04:59.555Z,39
2023-02-24T04:06:13.616Z,40
2023-02-24T04:08:41.933Z,39
2023-02-24T04:09:55.981Z,40
2023-02-24T04:11:10.123Z,39
2023-02-24T04:12:24.354Z,39
2023-02-24T04:14:52.559Z,34
2023-02-24T04:16:06.748Z,41
2023-02-24T04:17:20.916Z,39
2023-02-24T04:19:49.080Z,40
2023-02-24T04:21:03.269Z,40
2023-02-24T04:22:17.326Z,39
2023-02-24T04:24:45.751Z,38
2023-02-24T04:25:59.719Z,40
2023-02-24T04:27:13.955Z,40
2023-02-24T04:29:42.149Z,40
2023-02-24T04:30:56.465Z,40
2023-02-24T04:32:10.567Z,40
2023-02-24T04:33:24.550Z,41
2023-02-24T04:35:52.832Z,41
2023-02-24T04:37:06.967Z,40
2023-02-24T04:38:21.067Z,40
2023-02-24T04:40:49.341Z,38
2023-02-24T04:42:03.508Z,36
2023-02-24T04:43:17.639Z,40
2023-02-24T04:45:45.925Z,38
2023-02-24T04:46:59.982Z,39
2023-02-24T04:48:14.204Z,39
2023-02-24T04:50:42.371Z,37
2023-02-24T04:51:56.519Z,39
2023-02-24T04:53:10.626Z,38
2023-02-24T04:54:24.912Z,37
2023-02-24T04:56:53.067Z,38
2023-02-24T04:58:07.214Z,36
2023-02-24T04:59:21.330Z,37
2023-02-24T05:01:49.573Z,34
2023-02-24T05:03:03.738Z,38
2023-02-24T05:04:17.952Z,35
2023-02-24T05:06:46.176Z,36
2023-02-24T05:08:00.217Z,35
2023-02-24T05:09:14.464Z,35
2023-02-24T05:10:28.508Z,35
2023-02-24T05:11:42.666Z,35
2023-02-24T05:12:56.830Z,35
2023-02-24T05:14:10.934Z,34
2023-02-24T05:15:25.026Z,36
2023-02-24T05:17:53.318Z,33
2023-02-24T05:19:07.448Z,33
2023-02-24T05:20:21.554Z,33
2023-02-24T05:22:49.843Z,29
2023-02-24T05:24:04.016Z,29
2023-02-24T05:25:18.128Z,29
2023-02-24T05:27:46.381Z,26
2023-02-24T05:29:00.555Z,28
2023-02-24T05:30:14.769Z,25
2023-02-24T05:32:43.003Z,25
2023-02-24T05:33:57.064Z,25
2023-02-24T05:35:11.165Z,24
2023-02-24T05:36:25.264Z,26
2023-02-24T05:38:56.344Z,24
2023-02-24T05:40:07.708Z,23
2023-02-24T05:41:22.324Z,22
2023-02-24T05:43:50.154Z,22
2023-02-24T05:45:04.359Z,21
2023-02-24T05:46:18.447Z,19
2023-02-24T05:48:46.665Z,20
2023-02-24T05:50:00.742Z,18
2023-02-24T05:51:14.962Z,19
2023-02-24T05:53:43.168Z,18
2023-02-24T05:54:57.293Z,18
2023-02-24T05:56:11.397Z,18
2023-02-24T05:57:25.939Z,16
2023-02-24T05:59:53.883Z,16
2023-02-24T06:01:08.031Z,16
2023-02-24T06:02:22.180Z,15
2023-02-24T06:04:50.356Z,15
2023-02-24T06:06:04.554Z,14
2023-02-24T06:07:18.623Z,15
2023-02-24T06:09:46.993Z,13
2023-02-24T06:11:01.000Z,14
2023-02-24T06:12:15.231Z,14
2023-02-24T06:14:43.556Z,13
2023-02-24T06:15:57.553Z,13
2023-02-24T06:17:11.744Z,13
2023-02-24T06:18:25.819Z,15
2023-02-24T06:21:02.283Z,13
2023-02-24T06:22:16.412Z,14
2023-02-24T06:24:44.717Z,12
2023-02-24T06:25:58.830Z,12
2023-02-24T06:27:12.956Z,13
2023-02-24T06:29:41.197Z,13
2023-02-24T06:30:55.444Z,14
2023-02-24T06:32:09.721Z,13
2023-02-24T06:33:23.717Z,14
2023-02-24T06:35:51.883Z,15
2023-02-24T06:37:06.107Z,15
2023-02-24T06:38:20.189Z,15
2023-02-24T06:39:36.496Z,12
2023-02-24T06:40:48.399Z,13
2023-02-24T06:42:02.575Z,15
2023-02-24T06:43:16.674Z,17
2023-02-24T06:45:45.034Z,12
2023-02-24T06:46:59.089Z,11
2023-02-24T06:48:13.241Z,12
2023-02-24T06:50:42.217Z,13
2023-02-24T06:51:55.661Z,12
2023-02-24T06:53:09.742Z,11
2023-02-24T06:54:23.865Z,11
2023-02-24T06:56:52.202Z,11
2023-02-24T06:58:06.347Z,12
2023-02-24T06:59:20.389Z,10
2023-02-24T07:01:48.710Z,11
2023-02-24T07:03:02.808Z,11
2023-02-24T07:04:17.002Z,11
2023-02-24T07:06:45.302Z,11
2023-02-24T07:07:59.340Z,11
2023-02-24T07:09:13.573Z,10
2023-02-24T07:10:27.584Z,10
2023-02-24T07:11:41.722Z,10
2023-02-24T07:12:55.896Z,11
2023-02-24T07:14:09.995Z,10
2023-02-24T07:15:24.169Z,9
2023-02-24T07:17:52.525Z,9
2023-02-24T07:19:06.585Z,8
2023-02-24T07:20:20.633Z,9
2023-02-24T07:22:48.940Z,8
2023-02-24T07:24:03.078Z,8
2023-02-24T07:25:17.199Z,9
2023-02-24T07:27:45.544Z,9
2023-02-24T07:28:59.600Z,9
2023-02-24T07:30:13.809Z,9
2023-02-24T07:32:42.021Z,9
2023-02-24T07:33:56.131Z,10
2023-02-24T07:35:10.227Z,10
2023-02-24T07:36:24.479Z,10
2023-02-24T07:38:52.688Z,11
2023-02-24T07:40:06.806Z,11
2023-02-24T07:41:21.273Z,11
2023-02-24T07:43:49.184Z,11
2023-02-24T07:45:03.416Z,10
2023-02-24T07:46:17.522Z,11
2023-02-24T07:48:45.703Z,11
2023-02-24T07:49:59.850Z,11
2023-02-24T07:51:14.019Z,11
2023-02-24T07:53:42.352Z,11
2023-02-24T07:54:56.390Z,9
2023-02-24T07:56:10.487Z,11
2023-02-24T07:57:24.746Z,11
2023-02-24T07:59:52.953Z,13
2023-02-24T08:01:07.160Z,11
2023-02-24T08:02:21.242Z,11
2023-02-24T08:04:49.447Z,11
2023-02-24T08:06:03.573Z,11
2023-02-24T08:07:17.731Z,11
2023-02-24T08:09:46.319Z,13
2023-02-24T08:11:00.101Z,11
2023-02-24T08:12:14.688Z,12
2023-02-24T08:14:42.556Z,12
2023-02-24T08:15:56.745Z,10
2023-02-24T08:17:10.758Z,12
2023-02-24T08:18:24.974Z,13
2023-02-24T08:20:53.163Z,16
2023-02-24T08:22:07.386Z,16
2023-02-24T08:23:21.416Z,19
2023-02-24T08:25:49.725Z,11
2023-02-24T08:27:03.932Z,11
2023-02-24T08:28:18.064Z,11
2023-02-24T08:30:46.752Z,11
2023-02-24T08:32:00.641Z,11
2023-02-24T08:33:14.503Z,10
2023-02-24T08:35:43.223Z,12
2023-02-24T08:36:56.914Z,11
2023-02-24T08:38:11.059Z,11
2023-02-24T08:39:25.159Z,10
2023-02-24T08:41:53.474Z,10
2023-02-24T08:43:07.627Z,11
2023-02-24T08:44:21.686Z,8
2023-02-24T08:46:49.997Z,8
2023-02-24T08:48:04.185Z,7
2023-02-24T08:49:18.237Z,8
2023-02-24T08:51:46.603Z,8
2023-02-24T08:53:00.628Z,9
2023-02-24T08:54:14.793Z,9
2023-02-24T08:56:43.134Z,6
2023-02-24T08:57:57.204Z,7
2023-02-24T08:59:11.273Z,7
2023-02-24T09:00:25.547Z,6
2023-02-24T09:02:53.707Z,7
2023-02-24T09:04:07.856Z,6
2023-02-24T09:05:21.956Z,6
2023-02-24T09:07:50.206Z,6
2023-02-24T09:09:04.355Z,6
2023-02-24T09:10:18.480Z,6
2023-02-24T09:12:46.782Z,6
2023-02-24T09:14:00.889Z,7
2023-02-24T09:15:15.238Z,7
2023-02-24T09:17:43.387Z,7
2023-02-24T09:18:57.418Z,6
2023-02-24T09:20:11.520Z,6
2023-02-24T09:21:25.793Z,7
2023-02-24T09:23:53.974Z,7
2023-02-24T09:25:08.097Z,6
2023-02-24T09:26:22.249Z,6
2023-02-24T09:28:50.502Z,7
2023-02-24T09:30:04.677Z,7
2023-02-24T09:31:19.015Z,6
2023-02-24T09:33:47.033Z,6
2023-02-24T09:35:01.145Z,6
2023-02-24T09:36:15.431Z,8
2023-02-24T09:38:43.615Z,7
2023-02-24T09:39:57.676Z,6
2023-02-24T09:41:18.885Z,7
2023-02-24T09:42:26.072Z,9
2023-02-24T09:44:54.313Z,9
2023-02-24T09:46:08.477Z,7
2023-02-24T09:47:22.604Z,5
2023-02-24T09:49:50.786Z,8
2023-02-24T09:51:05.420Z,7
2023-02-24T09:52:19.030Z,7
2023-02-24T09:54:47.293Z,6
2023-02-24T09:56:01.404Z,6
2023-02-24T09:57:15.629Z,5
2023-02-24T09:59:43.845Z,5
2023-02-24T10:00:58.077Z,6
2023-02-24T10:02:12.203Z,5
2023-02-24T10:03:26.269Z,6
2023-02-24T10:05:54.531Z,7
2023-02-24T10:07:08.678Z,5
2023-02-24T10:08:22.820Z,5
2023-02-24T10:10:50.986Z,5
2023-02-24T10:12:05.233Z,5
2023-02-24T10:13:19.334Z,5
2023-02-24T10:15:47.903Z,5
2023-02-24T10:17:01.821Z,6
2023-02-24T10:18:15.826Z,5
2023-02-24T10:20:44.288Z,5
2023-02-24T10:21:58.212Z,6
2023-02-24T10:23:12.332Z,6
2023-02-24T10:24:26.483Z,7
2023-02-24T10:27:08.386Z,6
2023-02-24T10:28:08.877Z,6
2023-02-24T10:29:23.042Z,7
2023-02-24T10:31:51.482Z,10
2023-02-24T10:33:05.513Z,10
2023-02-24T10:34:19.552Z,9
2023-02-24T10:36:47.798Z,12
2023-02-24T10:38:01.938Z,7
2023-02-24T10:39:16.051Z,6
2023-02-24T10:41:44.456Z,8
2023-02-24T10:42:58.467Z,7
2023-02-24T10:44:12.737Z,7
2023-02-24T10:46:42.629Z,8
2023-02-24T10:47:55.038Z,10
2023-02-24T10:49:09.113Z,9
2023-02-24T10:50:23.349Z,8
2023-02-24T10:52:51.501Z,8
2023-02-24T10:54:05.712Z,9
2023-02-24T10:55:19.784Z,12
2023-02-24T10:57:58.546Z,11
2023-02-24T10:59:02.191Z,11
2023-02-24T11:00:16.322Z,8
2023-02-24T11:02:44.696Z,8
2023-02-24T11:03:58.705Z,9
2023-02-24T11:05:12.948Z,9
2023-02-24T11:07:41.104Z,14
2023-02-24T11:08:55.265Z,16
2023-02-24T11:10:10.488Z,11
2023-02-24T11:11:23.859Z,18
2023-02-24T11:13:51.748Z,13
2023-02-24T11:15:05.924Z,25
2023-02-24T11:16:20.085Z,13
2023-02-24T11:18:48.315Z,12
2023-02-24T11:20:02.491Z,8
2023-02-24T11:21:16.564Z,10
2023-02-24T11:23:44.874Z,11
2023-02-24T11:25:00.941Z,10
2023-02-24T11:26:13.186Z,11
2023-02-24T11:28:41.544Z,8
2023-02-24T11:29:55.605Z,9
2023-02-24T11:31:09.727Z,9
2023-02-24T11:32:23.931Z,9
2023-02-24T11:34:52.147Z,15
2023-02-24T11:36:06.192Z,14
2023-02-24T11:37:20.360Z,12
2023-02-24T11:39:48.585Z,11
2023-02-24T11:41:02.702Z,13
2023-02-24T11:42:16.837Z,11
2023-02-24T11:44:45.152Z,9
2023-02-24T11:45:59.355Z,8
2023-02-24T11:47:13.441Z,10
2023-02-24T11:48:27.555Z,10
2023-02-24T11:49:41.610Z,7
2023-02-24T11:50:55.763Z,7
2023-02-24T11:52:09.940Z,7
2023-02-24T11:53:24.032Z,7
2023-02-24T11:55:52.376Z,7
2023-02-24T11:57:06.467Z,7
2023-02-24T11:58:20.538Z,7
2023-02-24T12:00:48.847Z,8
2023-02-24T12:02:02.970Z,7
2023-02-24T12:03:17.176Z,8
2023-02-24T12:05:45.452Z,6
2023-02-24T12:06:59.524Z,7
2023-02-24T12:08:13.653Z,7
2023-02-24T12:10:41.904Z,8
2023-02-24T12:11:56.099Z,8
2023-02-24T12:13:10.144Z,9
2023-02-24T12:14:24.346Z,7
2023-02-24T12:16:52.637Z,8
2023-02-24T12:18:06.688Z,7
2023-02-24T12:19:21.117Z,8
2023-02-24T12:21:49.088Z,7
2023-02-24T12:23:03.249Z,7
2023-02-24T12:24:17.359Z,7
2023-02-24T12:26:45.621Z,9
2023-02-24T12:27:59.758Z,9
2023-02-24T12:29:13.909Z,8
2023-02-24T12:31:42.323Z,8
2023-02-24T12:32:56.401Z,8
2023-02-24T12:34:10.390Z,8
2023-02-24T12:35:24.682Z,7
2023-02-24T12:37:52.926Z,6
2023-02-24T12:39:06.945Z,6
2023-02-24T12:40:21.040Z,6
2023-02-24T12:42:49.364Z,9
2023-02-24T12:44:03.566Z,8
2023-02-24T12:45:17.653Z,8
2023-02-24T12:47:45.862Z,9
2023-02-24T12:49:00.002Z,8
2023-02-24T12:50:14.230Z,8
2023-02-24T12:52:42.408Z,11
2023-02-24T12:53:57.642Z,10
2023-02-24T12:55:10.667Z,8
2023-02-24T12:56:24.912Z,8
2023-02-24T12:58:53.168Z,10
2023-02-24T13:00:07.222Z,9
2023-02-24T13:01:21.765Z,8
2023-02-24T13:03:49.627Z,9
2023-02-24T13:05:03.775Z,12
2023-02-24T13:06:17.890Z,13
2023-02-24T13:08:46.185Z,11
2023-02-24T13:10:00.238Z,13
2023-02-24T13:11:16.401Z,11
2023-02-24T13:12:28.524Z,11
2023-02-24T13:13:42.754Z,10
2023-02-24T13:14:56.804Z,10
2023-02-24T13:16:11.044Z,10
2023-02-24T13:17:25.077Z,12
2023-02-24T13:19:53.336Z,10
2023-02-24T13:21:07.593Z,10
2023-02-24T13:22:21.625Z,9
2023-02-24T13:24:49.861Z,10
2023-02-24T13:26:04.013Z,10
2023-02-24T13:27:18.148Z,9
2023-02-24T13:29:46.419Z,11
2023-02-24T13:31:00.655Z,9
2023-02-24T13:32:14.824Z,11
2023-02-24T13:34:42.937Z,10
2023-02-24T13:35:57.542Z,11
2023-02-24T13:37:11.204Z,12
2023-02-24T13:38:25.417Z,11
2023-02-24T13:40:53.596Z,10
2023-02-24T13:42:07.743Z,11
2023-02-24T13:43:21.864Z,9
2023-02-24T13:45:50.154Z,10
2023-02-24T13:47:04.327Z,9
2023-02-24T13:48:18.385Z,10
2023-02-24T13:50:46.692Z,11
2023-02-24T13:52:00.804Z,10
2023-02-24T13:53:14.998Z,10
2023-02-24T13:55:43.251Z,10
2023-02-24T13:56:57.340Z,11
2023-02-24T13:58:11.444Z,11
2023-02-24T13:59:25.674Z,11
2023-02-24T14:01:53.954Z,12
2023-02-24T14:03:08.003Z,11
2023-02-24T14:04:22.297Z,12
2023-02-24T14:06:50.349Z,11
2023-02-24T14:08:04.531Z,11
2023-02-24T14:09:18.637Z,11
2023-02-24T14:11:46.902Z,11
2023-02-24T14:13:01.093Z,11
2023-02-24T14:14:15.481Z,12
2023-02-24T14:16:43.476Z,12
2023-02-24T14:17:57.594Z,13
2023-02-24T14:19:11.743Z,12
2023-02-24T14:20:25.913Z,12
2023-02-24T14:22:54.310Z,14
2023-02-24T14:24:08.244Z,14
2023-02-24T14:25:22.465Z,15
2023-02-24T14:27:50.638Z,15
2023-02-24T14:29:04.770Z,16
2023-02-24T14:30:18.903Z,18
2023-02-24T14:32:47.226Z,14
2023-02-24T14:34:01.264Z,15
2023-02-24T14:35:15.634Z,14
2023-02-24T14:37:51.893Z,18
2023-02-24T14:39:06.032Z,15
2023-02-24T14:40:20.154Z,16
2023-02-24T14:41:34.330Z,15
2023-02-24T14:42:48.462Z,16
2023-02-24T14:44:02.575Z,15
2023-02-24T14:45:16.707Z,14
2023-02-24T14:47:45.113Z,14
2023-02-24T14:48:59.119Z,14
2023-02-24T14:50:13.571Z,15
2023-02-24T14:52:41.471Z,14
2023-02-24T14:53:55.737Z,13
2023-02-24T14:55:09.774Z,14
2023-02-24T14:56:24.425Z,15
2023-02-24T14:58:52.165Z,15
2023-02-24T15:00:06.351Z,14
2023-02-24T15:01:20.409Z,14
2023-02-24T15:03:48.703Z,16
2023-02-24T15:05:02.860Z,15
2023-02-24T15:06:16.962Z,14
2023-02-24T15:08:45.294Z,16
2023-02-24T15:09:59.341Z,17
2023-02-24T15:11:13.539Z,18
2023-02-24T15:13:41.754Z,15
2023-02-24T15:14:55.961Z,17
2023-02-24T15:16:10.107Z,16
2023-02-24T15:17:24.242Z,15
2023-02-24T15:19:52.971Z,17
2023-02-24T15:21:06.540Z,18
2023-02-24T15:22:20.652Z,15
2023-02-24T15:24:48.949Z,16
2023-02-24T15:26:03.195Z,15
2023-02-24T15:27:17.215Z,15
2023-02-24T15:29:45.520Z,13
2023-02-24T15:30:59.765Z,14
2023-02-24T15:32:13.884Z,14
2023-02-24T15:34:42.009Z,14
2023-02-24T15:35:56.188Z,15
2023-02-24T15:37:10.239Z,14
2023-02-24T15:38:24.528Z,13
2023-02-24T15:40:52.732Z,14
2023-02-24T15:42:06.859Z,15
2023-02-24T15:43:20.921Z,16
2023-02-24T15:45:49.181Z,16
2023-02-24T15:47:03.407Z,15
2023-02-24T15:48:17.468Z,16
2023-02-24T15:50:45.739Z,15
2023-02-24T15:51:59.900Z,15
2023-02-24T15:53:14.010Z,17
2023-02-24T15:55:42.325Z,15
2023-02-24T15:56:56.381Z,16
2023-02-24T15:58:10.513Z,15
2023-02-24T15:59:24.693Z,14
2023-02-24T16:01:53.005Z,14
2023-02-24T16:03:07.072Z,16
2023-02-24T16:04:21.271Z,15
2023-02-24T16:06:49.466Z,15
2023-02-24T16:08:03.673Z,16
2023-02-24T16:09:17.726Z,14
2023-02-24T16:11:46.144Z,15
2023-02-24T16:13:00.273Z,17
2023-02-24T16:14:14.271Z,16
2023-02-24T16:16:42.611Z,15
2023-02-24T16:17:56.638Z,16
2023-02-24T16:19:10.778Z,16
2023-02-24T16:20:24.940Z,16
2023-02-24T16:22:53.209Z,16
2023-02-24T16:24:07.347Z,15
2023-02-24T16:25:21.418Z,16
2023-02-24T16:27:49.750Z,16
2023-02-24T16:29:03.847Z,16
2023-02-24T16:30:19.508Z,15
2023-02-24T16:32:46.464Z,15
2023-02-24T16:34:00.587Z,16
2023-02-24T16:35:14.498Z,15
2023-02-24T16:37:42.869Z,16
2023-02-24T16:38:56.919Z,16
2023-02-24T16:40:11.015Z,15
2023-02-24T16:41:25.269Z,16
2023-02-24T16:43:53.597Z,19
2023-02-24T16:45:07.602Z,19
2023-02-24T16:46:22.188Z,16
2023-02-24T16:48:49.973Z,16
2023-02-24T16:50:04.164Z,17
2023-02-24T16:51:18.263Z,17
2023-02-24T16:53:46.571Z,15
2023-02-24T16:55:00.609Z,16
2023-02-24T16:56:14.782Z,15
2023-02-24T16:58:43.044Z,17
2023-02-24T16:59:57.576Z,16
2023-02-24T17:01:11.303Z,15
2023-02-24T17:02:25.456Z,15
2023-02-24T17:04:53.814Z,15
2023-02-24T17:06:07.841Z,15
2023-02-24T17:07:22.100Z,15
2023-02-24T17:09:50.317Z,14
2023-02-24T17:11:04.372Z,14
2023-02-24T17:12:20.029Z,14
2023-02-24T17:14:46.769Z,13
2023-02-24T17:16:00.917Z,13
2023-02-24T17:17:15.158Z,15
2023-02-24T17:19:43.352Z,14
2023-02-24T17:20:57.438Z,14
2023-02-24T17:22:11.534Z,14
2023-02-24T17:23:25.758Z,14
2023-02-24T17:25:54.054Z,13
2023-02-24T17:27:08.093Z,15
2023-02-24T17:28:22.221Z,14
2023-02-24T17:30:50.578Z,14
2023-02-24T17:32:05.038Z,14
2023-02-24T17:33:18.749Z,15
2023-02-24T17:35:47.080Z,15
2023-02-24T17:37:01.219Z,15
2023-02-24T17:38:15.366Z,16
2023-02-24T17:40:43.594Z,16
2023-02-24T17:41:57.685Z,15
2023-02-24T17:43:11.821Z,17
2023-02-24T17:44:25.995Z,16
2023-02-24T17:46:54.342Z,16
2023-02-24T17:48:08.437Z,16
2023-02-24T17:49:22.479Z,16
2023-02-24T17:51:50.737Z,18
2023-02-24T17:53:04.941Z,19
2023-02-24T17:54:19.086Z,22
2023-02-24T17:56:47.290Z,18
2023-02-24T17:58:01.396Z,19
2023-02-24T17:59:15.690Z,20
2023-02-24T18:01:43.979Z,23
2023-02-24T18:02:58.124Z,21
2023-02-24T18:04:12.137Z,22
2023-02-24T18:06:40.338Z,19
2023-02-24T18:07:54.475Z,20
2023-02-24T18:09:08.646Z,22
2023-02-24T18:10:22.730Z,24
2023-02-24T18:12:50.971Z,25
2023-02-24T18:14:05.140Z,25
2023-02-24T18:15:19.320Z,26
2023-02-24T18:17:47.554Z,28
2023-02-24T18:19:01.644Z,28
2023-02-24T18:20:15.889Z,26
2023-02-24T18:22:44.067Z,25
2023-02-24T18:23:58.199Z,25
2023-02-24T18:25:12.363Z,23
2023-02-24T18:26:26.900Z,25
2023-02-24T18:28:54.843Z,24
2023-02-24T18:30:08.871Z,24
2023-02-24T18:31:23.114Z,23
2023-02-24T18:33:51.257Z,23
2023-02-24T18:35:05.431Z,24
2023-02-24T18:36:20.123Z,23
2023-02-24T18:38:47.817Z,26
2023-02-24T18:40:01.981Z,26
2023-02-24T18:41:16.184Z,25
2023-02-24T18:43:44.331Z,23
2023-02-24T18:44:58.458Z,23
2023-02-24T18:46:12.623Z,23
2023-02-24T18:48:40.834Z,22
2023-02-24T18:49:55.188Z,23
2023-02-24T18:51:09.233Z,24
2023-02-24T18:52:23.374Z,21
2023-02-24T18:54:51.542Z,20
2023-02-24T18:56:05.666Z,20
2023-02-24T18:57:19.800Z,20
2023-02-24T18:59:48.081Z,16
2023-02-24T19:01:02.211Z,16
2023-02-24T19:02:16.485Z,16
2023-02-24T19:04:44.599Z,15
2023-02-24T19:05:58.723Z,15
2023-02-24T19:07:12.864Z,14
2023-02-24T19:08:27.031Z,15
2023-02-24T19:10:55.279Z,16
2023-02-24T19:12:09.446Z,15
2023-02-24T19:13:23.590Z,15
2023-02-24T19:15:51.820Z,16
2023-02-24T19:17:05.947Z,17
2023-02-24T19:18:20.039Z,18
2023-02-24T19:19:34.188Z,20
2023-02-24T19:20:48.320Z,19
2023-02-24T19:22:02.450Z,19
2023-02-24T19:23:16.550Z,18
2023-02-24T19:25:44.866Z,18
2023-02-24T19:26:59.024Z,19
2023-02-24T19:28:13.100Z,19
2023-02-24T19:30:41.387Z,20
2023-02-24T19:31:55.755Z,19
2023-02-24T19:33:09.793Z,20
2023-02-24T19:34:23.843Z,20
2023-02-24T19:36:52.065Z,19
2023-02-24T19:38:06.177Z,19
2023-02-24T19:39:20.292Z,19
2023-02-24T19:41:49.894Z,22
2023-02-24T19:43:02.694Z,20
2023-02-24T19:44:16.838Z,21
2023-02-24T19:46:45.120Z,23
2023-02-24T19:47:59.358Z,21
2023-02-24T19:49:13.381Z,23
2023-02-24T19:51:41.635Z,24
2023-02-24T19:52:55.787Z,22
2023-02-24T19:54:09.930Z,22
2023-02-24T19:55:24.080Z,21
2023-02-24T19:57:52.319Z,19
2023-02-24T19:59:06.428Z,20
2023-02-24T20:00:20.542Z,19
2023-02-24T20:02:48.879Z,12
2023-02-24T20:04:02.955Z,12
2023-02-24T20:05:17.083Z,11
2023-02-24T20:07:45.442Z,9
2023-02-24T20:08:59.668Z,8
2023-02-24T20:10:13.731Z,8
2023-02-24T20:12:41.881Z,8
2023-02-24T20:13:56.091Z,8
2023-02-24T20:15:10.163Z,8
2023-02-24T20:16:24.765Z,8
2023-02-24T20:18:52.552Z,12
2023-02-24T20:20:06.713Z,10
2023-02-24T20:21:20.808Z,7
2023-02-24T20:23:49.129Z,7
2023-02-24T20:25:03.266Z,7
2023-02-24T20:26:17.356Z,7
2023-02-24T20:28:45.665Z,8
2023-02-24T20:29:59.953Z,8
2023-02-24T20:31:14.057Z,8
2023-02-24T20:33:42.162Z,8
2023-02-24T20:34:56.443Z,9
2023-02-24T20:36:10.433Z,9
2023-02-24T20:37:24.651Z,9
2023-02-24T20:39:52.821Z,10
2023-02-24T20:41:06.956Z,10
2023-02-24T20:42:21.099Z,10
2023-02-24T20:44:49.408Z,10
2023-02-24T20:46:03.625Z,12
2023-02-24T20:47:19.152Z,11
2023-02-24T20:49:45.930Z,14
2023-02-24T20:51:00.042Z,11
2023-02-24T20:52:14.134Z,12
2023-02-24T20:54:42.428Z,11
2023-02-24T20:55:56.542Z,12
2023-02-24T20:57:10.721Z,11
2023-02-24T20:58:24.898Z,12
2023-02-24T21:00:53.330Z,12
2023-02-24T21:02:07.205Z,12
2023-02-24T21:03:21.315Z,11
2023-02-24T21:05:51.436Z,9
2023-02-24T21:07:03.745Z,9
2023-02-24T21:08:17.878Z,9
2023-02-24T21:10:46.138Z,9
2023-02-24T21:12:00.287Z,9
2023-02-24T21:13:14.434Z,9
2023-02-24T21:15:42.711Z,9
2023-02-24T21:16:56.872Z,8
2023-02-24T21:18:10.969Z,9
2023-02-24T21:19:25.130Z,9
2023-02-24T21:21:53.410Z,10
2023-02-24T21:23:07.498Z,10
2023-02-24T21:24:21.569Z,10
2023-02-24T21:26:50.000Z,10
2023-02-24T21:28:04.098Z,9
2023-02-24T21:29:18.131Z,9
2023-02-24T21:31:46.589Z,10
2023-02-24T21:33:00.554Z,10
2023-02-24T21:34:14.653Z,10
2023-02-24T21:36:42.935Z,9
2023-02-24T21:37:57.042Z,10
2023-02-24T21:39:11.164Z,10
2023-02-24T21:40:25.358Z,10
2023-02-24T21:42:53.641Z,11
2023-02-24T21:44:07.714Z,10
2023-02-24T21:45:21.851Z,11
2023-02-24T21:47:50.178Z,10
2023-02-24T21:49:04.266Z,12
2023-02-24T21:50:18.396Z,11
2023-02-24T21:52:46.650Z,9
2023-02-24T21:54:00.868Z,9
2023-02-24T21:55:15.008Z,9
2023-02-24T21:57:43.164Z,7
2023-02-24T21:58:57.307Z,7
2023-02-24T22:00:11.461Z,7
2023-02-24T22:01:25.850Z,8
2023-02-24T22:03:53.866Z,7
2023-02-24T22:05:08.050Z,8
2023-02-24T22:06:22.490Z,8
2023-02-24T22:08:50.360Z,9
2023-02-24T22:10:04.581Z,9
2023-02-24T22:11:18.753Z,9
2023-02-24T22:13:46.909Z,11
2023-02-24T22:15:01.022Z,11
2023-02-24T22:16:15.365Z,12
2023-02-24T22:18:43.512Z,13
2023-02-24T22:19:57.588Z,12
2023-02-24T22:21:11.724Z,11
2023-02-24T22:22:25.829Z,11
2023-02-24T22:24:54.201Z,10
2023-02-24T22:26:08.253Z,10
2023-02-24T22:27:22.635Z,10
2023-02-24T22:29:50.615Z,11
2023-02-24T22:31:04.910Z,8
2023-02-24T22:32:19.068Z,8
2023-02-24T22:34:47.171Z,9
2023-02-24T22:36:01.293Z,8
2023-02-24T22:37:15.544Z,9
2023-02-24T22:39:43.748Z,9
2023-02-24T22:40:57.849Z,8
2023-02-24T22:42:11.978Z,7
2023-02-24T22:43:26.103Z,7
2023-02-24T22:46:02.216Z,7
2023-02-24T22:47:08.707Z,7
2023-02-24T22:48:25.005Z,8
2023-02-24T22:50:50.871Z,8
2023-02-24T22:52:05.087Z,7
2023-02-24T22:53:19.236Z,7
2023-02-24T22:55:55.672Z,7
2023-02-24T22:57:09.821Z,6
2023-02-24T22:58:24.129Z,6
2023-02-24T23:00:52.203Z,7
2023-02-24T23:02:06.306Z,6
2023-02-24T23:03:20.402Z,7
2023-02-24T23:05:48.690Z,6